Time;durP1;ratioP1;P1;durP2;ratioP2;P2;SDS_P1;SDS_P2;PMS_P1;PMS_P2;Temp;Humidity;BMP_temperature;BMP_pressure;BME280_temperature;BME280_humidity;BME280_pressure;Samples;Min_cycle;Max_cycle;Signal;HPM_P1;HPM_P2
2023/05/13 00:00:04;;;;;;;2.92;2.33;;;11.80;99.90;;;;;;5020423;28;20022;-72
2023/05/13 00:02:39;;;;;;;5.53;2.60;;;11.80;99.90;;;;;;5022560;28;20018;-72
2023/05/13 00:05:05;;;;;;;3.53;2.70;;;11.70;99.90;;;;;;5006495;28;20077;-73
2023/05/13 00:07:31;;;;;;;3.95;2.65;;;11.70;99.90;;;;;;5013068;28;20080;-73
2023/05/13 00:09:57;;;;;;;5.50;3.33;;;11.70;99.90;;;;;;5010209;28;20128;-72
2023/05/13 00:12:30;;;;;;;4.57;2.90;;;11.60;99.90;;;;;;5018470;28;20053;-72
2023/05/13 00:14:55;;;;;;;5.18;3.25;;;11.60;99.90;;;;;;5013751;28;20121;-72
2023/05/13 00:17:24;;;;;;;7.72;3.47;;;11.60;99.90;;;;;;5017847;28;20056;-73
2023/05/13 00:19:50;;;;;;;3.97;2.42;;;11.50;99.90;;;;;;5011722;28;20026;-73
2023/05/13 00:22:15;;;;;;;5.70;2.92;;;11.50;99.90;;;;;;5013245;28;20108;-73
2023/05/13 00:24:47;;;;;;;5.38;3.33;;;11.50;99.90;;;;;;5016871;28;20030;-73
2023/05/13 00:27:15;;;;;;;4.82;3.15;;;11.60;99.90;;;;;;5020742;28;20021;-73
2023/05/13 00:29:44;;;;;;;4.82;3.38;;;11.50;99.90;;;;;;5018302;28;20014;-73
2023/05/13 00:32:10;;;;;;;3.88;3.33;;;11.50;99.90;;;;;;5019574;28;20045;-72
2023/05/13 00:34:36;;;;;;;6.57;3.17;;;11.50;99.90;;;;;;5018187;28;20025;-73
2023/05/13 00:37:09;;;;;;;3.65;3.13;;;11.50;99.90;;;;;;5015498;28;20026;-73
2023/05/13 00:39:34;;;;;;;5.10;3.33;;;11.50;99.90;;;;;;5014994;28;20357;-73
2023/05/13 00:42:06;;;;;;;5.53;3.72;;;11.50;99.90;;;;;;5014871;28;20029;-73
2023/05/13 00:44:35;;;;;;;5.35;3.58;;;11.50;99.90;;;;;;5013645;28;20558;-73
2023/05/13 00:47:04;;;;;;;5.13;3.30;;;11.50;99.90;;;;;;5020066;28;20044;-73
2023/05/13 00:49:32;;;;;;;5.90;3.20;;;11.40;99.90;;;;;;5021897;28;20190;-72
2023/05/13 00:51:58;;;;;;;5.47;3.83;;;11.40;99.90;;;;;;5015488;28;20022;-73
2023/05/13 00:54:24;;;;;;;8.02;4.05;;;11.40;99.90;;;;;;5017059;28;20037;-73
2023/05/13 00:56:53;;;;;;;5.05;3.60;;;11.40;99.90;;;;;;5014956;28;20037;-73
2023/05/13 00:59:24;;;;;;;4.20;3.40;;;11.30;99.90;;;;;;5019255;28;20029;-73
2023/05/13 01:02:18;;;;;;;6.20;3.78;;;11.40;99.90;;;;;;5014429;28;20029;-73
2023/05/13 01:05:08;;;;;;;4.13;3.35;;;11.30;99.90;;;;;;5013140;28;20058;-73
2023/05/13 01:07:52;;;;;;;5.10;4.13;;;11.40;99.90;;;;;;5014179;28;20026;-73
2023/05/13 01:10:50;;;;;;;4.85;3.83;;;11.30;99.90;;;;;;5017047;28;20460;-73
2023/05/13 01:13:32;;;;;;;6.60;4.07;;;11.30;99.90;;;;;;5021922;28;20109;-73
2023/05/13 01:16:06;;;;;;;4.60;3.30;;;11.30;99.90;;;;;;5010127;28;20026;-73
2023/05/13 01:18:39;;;;;;;4.82;3.53;;;11.30;99.90;;;;;;5015000;28;20020;-73
2023/05/13 01:21:08;;;;;;;6.90;3.97;;;11.30;99.90;;;;;;5011063;28;20075;-72
2023/05/13 01:23:37;;;;;;;5.57;3.78;;;11.20;99.90;;;;;;5014339;28;20283;-72
2023/05/13 01:26:05;;;;;;;7.35;3.97;;;11.30;99.90;;;;;;5012069;28;20037;-72
2023/05/13 01:28:31;;;;;;;5.03;3.45;;;11.20;99.90;;;;;;5016686;28;20029;-73
2023/05/13 01:30:57;;;;;;;5.57;3.85;;;11.20;99.90;;;;;;5014239;28;20026;-72
2023/05/13 01:33:25;;;;;;;5.63;4.13;;;11.20;99.90;;;;;;5012129;28;20140;-73
2023/05/13 01:35:51;;;;;;;3.97;3.30;;;11.20;99.90;;;;;;5016254;28;20022;-73
2023/05/13 01:38:21;;;;;;;5.80;4.00;;;11.20;99.90;;;;;;5013831;28;20014;-73
2023/05/13 01:40:47;;;;;;;5.78;3.55;;;11.20;99.90;;;;;;5013984;28;20517;-73
2023/05/13 01:43:12;;;;;;;4.30;3.55;;;11.10;99.90;;;;;;5017100;28;20030;-72
2023/05/13 01:45:38;;;;;;;4.85;3.78;;;11.10;99.90;;;;;;5013861;28;20509;-73
2023/05/13 01:48:07;;;;;;;4.65;3.33;;;11.10;99.90;;;;;;5013156;28;20033;-72
2023/05/13 01:50:32;;;;;;;5.65;3.80;;;11.10;99.90;;;;;;5012943;28;20057;-73
2023/05/13 01:52:58;;;;;;;4.78;3.63;;;11.10;99.90;;;;;;5015325;28;20022;-73
2023/05/13 01:55:27;;;;;;;4.72;3.58;;;11.10;99.90;;;;;;5012940;28;20137;-71
2023/05/13 01:57:55;;;;;;;6.93;3.78;;;11.20;99.90;;;;;;5015750;28;20081;-73
2023/05/13 02:00:21;;;;;;;3.92;3.25;;;11.10;99.90;;;;;;5020015;28;20488;-73
2023/05/13 02:02:47;;;;;;;6.15;3.75;;;11.10;99.90;;;;;;5013042;28;20061;-73
2023/05/13 02:05:18;;;;;;;5.57;4.05;;;11.20;99.90;;;;;;5020348;28;20068;-73
2023/05/13 02:07:44;;;;;;;5.40;3.58;;;11.10;99.90;;;;;;5013140;28;20567;-73
2023/05/13 02:10:10;;;;;;;5.65;3.33;;;11.10;99.90;;;;;;5015628;28;20081;-73
2023/05/13 02:12:36;;;;;;;6.05;3.88;;;11.10;99.90;;;;;;5015244;28;20497;-73
2023/05/13 02:15:05;;;;;;;5.45;4.15;;;11.10;99.90;;;;;;5026372;28;20032;-72
2023/05/13 02:17:34;;;;;;;7.65;3.88;;;11.10;99.90;;;;;;5014422;28;20400;-73
2023/05/13 02:19:59;;;;;;;4.78;3.65;;;11.10;99.90;;;;;;5019675;28;20021;-73
2023/05/13 02:22:25;;;;;;;7.82;4.20;;;11.10;99.90;;;;;;5013752;28;20061;-72
2023/05/13 02:24:54;;;;;;;8.02;4.20;;;11.20;99.90;;;;;;5012591;28;20039;-72
2023/05/13 02:27:20;;;;;;;10.38;4.63;;;11.10;99.90;;;;;;5017298;28;20057;-72
2023/05/13 02:29:48;;;;;;;5.75;4.25;;;11.10;99.90;;;;;;5017051;28;20026;-73
2023/05/13 02:32:14;;;;;;;6.00;4.55;;;11.10;99.90;;;;;;5016064;28;20030;-75
2023/05/13 02:34:39;;;;;;;5.90;4.25;;;11.10;99.90;;;;;;5012417;28;20049;-73
2023/05/13 02:37:08;;;;;;;9.70;4.50;;;11.10;99.90;;;;;;5012120;28;20400;-74
2023/05/13 02:39:33;;;;;;;6.20;4.95;;;11.10;99.90;;;;;;5010613;28;20018;-74
2023/05/13 02:42:02;;;;;;;7.47;3.97;;;11.10;99.90;;;;;;5010226;28;20018;-74
2023/05/13 02:44:31;;;;;;;5.40;3.90;;;11.10;99.90;;;;;;5010519;28;20512;-74
2023/05/13 02:46:59;;;;;;;7.05;4.07;;;11.10;99.90;;;;;;5007314;28;20168;-74
2023/05/13 02:49:25;;;;;;;4.80;3.90;;;11.10;99.90;;;;;;5009944;28;20033;-74
2023/05/13 02:52:00;;;;;;;6.10;4.07;;;11.10;99.90;;;;;;5008578;28;20510;-74
2023/05/13 02:54:25;;;;;;;7.82;4.20;;;11.10;99.90;;;;;;5010003;28;20068;-74
2023/05/13 02:56:51;;;;;;;5.93;4.65;;;11.10;99.90;;;;;;5016701;28;20137;-75
2023/05/13 02:59:20;;;;;;;9.02;3.95;;;11.10;99.90;;;;;;5006310;28;20490;-74
2023/05/13 03:01:45;;;;;;;6.30;3.65;;;11.00;99.90;;;;;;5010019;28;20026;-73
2023/05/13 03:04:11;;;;;;;5.43;4.35;;;11.10;99.90;;;;;;5008863;28;20964;-73
2023/05/13 03:06:36;;;;;;;6.57;4.10;;;11.00;99.90;;;;;;5011600;28;20054;-73
2023/05/13 03:09:02;;;;;;;10.05;3.95;;;11.00;99.90;;;;;;5009187;28;20113;-75
2023/05/13 03:11:28;;;;;;;8.18;4.35;;;11.00;99.90;;;;;;5011377;28;20048;-74
2023/05/13 03:13:53;;;;;;;5.03;3.70;;;10.90;99.90;;;;;;5006029;28;20568;-74
2023/05/13 03:16:19;;;;;;;6.00;4.05;;;10.90;99.90;;;;;;5014176;28;20481;-74
2023/05/13 03:18:45;;;;;;;5.30;3.83;;;10.90;99.90;;;;;;5013437;28;20034;-74
2023/05/13 03:21:10;;;;;;;9.68;4.20;;;10.90;99.90;;;;;;5011029;28;20109;-74
2023/05/13 03:23:39;;;;;;;5.32;3.90;;;10.90;99.90;;;;;;5020922;28;20022;-73
2023/05/13 03:26:10;;;;;;;4.97;3.70;;;10.80;99.90;;;;;;5013173;28;20480;-73
2023/05/13 03:28:39;;;;;;;9.52;3.72;;;10.80;99.90;;;;;;5020090;28;20455;-74
2023/05/13 03:31:11;;;;;;;6.88;3.78;;;10.80;99.90;;;;;;5011438;28;20392;-73
2023/05/13 03:33:40;;;;;;;5.78;4.03;;;10.80;99.90;;;;;;5009676;28;20030;-73
2023/05/13 03:36:09;;;;;;;6.43;4.28;;;10.80;99.90;;;;;;5006731;28;20053;-74
2023/05/13 03:38:34;;;;;;;5.10;3.70;;;10.90;99.90;;;;;;5010011;28;20030;-74
2023/05/13 03:41:06;;;;;;;5.68;3.92;;;10.90;99.90;;;;;;5009634;28;20394;-74
2023/05/13 03:43:32;;;;;;;5.68;3.60;;;10.90;99.90;;;;;;5014936;28;20024;-75
2023/05/13 03:45:57;;;;;;;4.97;3.70;;;10.90;99.90;;;;;;5014962;28;20030;-74
2023/05/13 03:48:23;;;;;;;7.22;3.55;;;10.90;99.90;;;;;;5010812;28;20059;-75
2023/05/13 03:50:49;;;;;;;4.97;3.55;;;10.90;99.90;;;;;;5012083;28;20361;-75
2023/05/13 03:53:16;;;;;;;6.85;4.28;;;10.90;99.90;;;;;;5007556;28;20112;-74
2023/05/13 03:55:42;;;;;;;5.47;3.55;;;10.90;99.90;;;;;;5012398;28;20031;-75
2023/05/13 03:58:14;;;;;;;5.68;3.65;;;10.90;99.90;;;;;;5009984;28;20339;-75
2023/05/13 04:00:40;;;;;;;4.55;3.70;;;10.90;99.90;;;;;;5007757;28;20033;-75
2023/05/13 04:03:06;;;;;;;4.93;3.58;;;10.90;99.90;;;;;;5009203;28;20040;-75
2023/05/13 04:05:35;;;;;;;4.45;3.33;;;10.90;99.90;;;;;;5007794;28;20120;-75
2023/05/13 04:08:04;;;;;;;7.40;3.65;;;10.90;99.90;;;;;;5005288;28;20065;-75
2023/05/13 04:10:35;;;;;;;4.82;3.60;;;10.90;99.90;;;;;;5009928;28;20116;-75
2023/05/13 04:13:01;;;;;;;8.43;3.70;;;10.90;99.90;;;;;;5005261;28;20085;-74
2023/05/13 04:15:32;;;;;;;4.93;3.55;;;10.90;99.90;;;;;;5005953;28;20050;-74
2023/05/13 04:17:58;;;;;;;4.30;3.45;;;10.90;99.90;;;;;;5008071;28;20062;-74
2023/05/13 04:20:24;;;;;;;4.78;3.67;;;10.90;99.90;;;;;;5007840;28;20049;-73
2023/05/13 04:22:50;;;;;;;4.75;3.60;;;10.90;99.90;;;;;;5005099;28;20022;-73
2023/05/13 04:25:19;;;;;;;5.65;2.78;;;10.80;99.90;;;;;;5009355;28;20049;-73
2023/05/13 04:27:50;;;;;;;4.10;2.80;;;10.80;99.90;;;;;;5005548;28;20396;-74
2023/05/13 04:30:22;;;;;;;6.18;2.97;;;10.80;99.90;;;;;;5007463;28;20076;-74
2023/05/13 04:32:47;;;;;;;9.82;3.90;;;10.80;99.90;;;;;;5006754;28;20117;-75
2023/05/13 04:35:16;;;;;;;5.30;3.70;;;10.80;99.90;;;;;;5008934;28;20117;-75
2023/05/13 04:37:41;;;;;;;4.85;3.65;;;10.80;99.90;;;;;;5012224;28;20108;-76
2023/05/13 04:40:08;;;;;;;6.60;3.60;;;10.70;99.90;;;;;;5008947;28;20122;-73
2023/05/13 04:42:33;;;;;;;5.38;3.53;;;10.70;99.90;;;;;;5006695;28;20028;-74
2023/05/13 04:45:02;;;;;;;5.32;2.85;;;10.70;99.90;;;;;;5006296;28;20013;-75
2023/05/13 04:47:34;;;;;;;3.88;2.53;;;10.70;99.90;;;;;;5013603;28;20076;-75
2023/05/13 04:50:01;;;;;;;6.65;3.63;;;10.70;99.90;;;;;;5013273;28;20133;-75
2023/05/13 04:52:29;;;;;;;4.60;3.08;;;10.70;99.90;;;;;;5010177;28;20018;-75
2023/05/13 04:55:01;;;;;;;4.03;2.97;;;10.70;99.90;;;;;;5008999;28;20033;-75
2023/05/13 04:57:29;;;;;;;3.75;2.88;;;10.70;99.90;;;;;;5011020;28;20026;-75
2023/05/13 05:00:03;;;;;;;4.53;3.15;;;10.60;99.90;;;;;;5006832;28;20034;-75
2023/05/13 05:02:34;;;;;;;4.28;3.05;;;10.70;99.90;;;;;;5008122;28;20084;-75
2023/05/13 05:05:00;;;;;;;5.32;3.55;;;10.60;99.90;;;;;;5005730;28;20044;-76
2023/05/13 05:07:25;;;;;;;4.95;3.10;;;10.60;99.90;;;;;;5012581;28;20121;-75
2023/05/13 05:09:54;;;;;;;5.30;3.15;;;10.70;99.90;;;;;;5007554;28;20036;-69
2023/05/13 05:12:23;;;;;;;7.03;3.42;;;10.60;99.90;;;;;;5007576;28;20417;-72
2023/05/13 05:14:51;;;;;;;4.70;3.30;;;10.70;99.90;;;;;;5002776;28;20040;-70
2023/05/13 05:17:17;;;;;;;4.93;2.75;;;10.70;99.90;;;;;;5005856;28;20080;-70
2023/05/13 05:19:43;;;;;;;5.88;3.30;;;10.70;99.90;;;;;;5003394;28;20034;-70
2023/05/13 05:22:08;;;;;;;4.13;2.88;;;10.80;99.90;;;;;;5002877;28;20025;-70
2023/05/13 05:24:43;;;;;;;6.13;2.97;;;10.80;99.90;;;;;;5007218;28;20030;-70
2023/05/13 05:27:08;;;;;;;3.92;3.00;;;10.80;99.90;;;;;;5006954;28;21026;-70
2023/05/13 05:29:34;;;;;;;5.22;3.22;;;10.70;99.90;;;;;;5007562;28;20030;-74
2023/05/13 05:32:00;;;;;;;4.90;3.10;;;10.70;99.90;;;;;;5011338;28;20033;-74
2023/05/13 05:34:28;;;;;;;3.60;2.53;;;10.70;99.90;;;;;;5015283;28;20121;-74
2023/05/13 05:36:54;;;;;;;6.57;2.80;;;10.70;99.90;;;;;;5015885;28;20065;-75
2023/05/13 05:39:23;;;;;;;5.30;3.03;;;10.60;99.90;;;;;;5015609;28;20674;-74
2023/05/13 05:41:57;;;;;;;3.90;2.80;;;10.60;99.90;;;;;;5013338;28;20396;-74
2023/05/13 05:44:23;;;;;;;5.93;2.50;;;10.60;99.90;;;;;;5014059;28;20030;-75
2023/05/13 05:46:52;;;;;;;4.75;3.17;;;10.60;99.90;;;;;;5011434;28;20030;-75
2023/05/13 05:49:24;;;;;;;5.38;3.28;;;10.50;99.90;;;;;;5014434;28;20032;-75
2023/05/13 05:51:52;;;;;;;5.25;3.30;;;10.60;99.90;;;;;;5012254;28;20030;-75
2023/05/13 05:54:18;;;;;;;5.78;2.78;;;10.60;99.90;;;;;;5012595;28;20026;-76
2023/05/13 05:56:43;;;;;;;8.63;2.95;;;10.60;99.90;;;;;;5011937;28;20100;-74
2023/05/13 05:59:12;;;;;;;4.25;2.72;;;10.60;99.90;;;;;;5009539;28;20105;-74
2023/05/13 06:01:40;;;;;;;5.35;2.90;;;10.60;99.90;;;;;;5010652;28;20360;-75
2023/05/13 06:04:09;;;;;;;6.18;2.80;;;10.60;99.90;;;;;;5007439;28;20038;-75
2023/05/13 06:06:35;;;;;;;5.05;3.00;;;10.60;99.90;;;;;;5012678;28;20029;-76
2023/05/13 06:09:01;;;;;;;6.57;3.22;;;10.60;99.90;;;;;;5009158;28;20108;-76
2023/05/13 06:11:32;;;;;;;4.32;2.85;;;10.60;99.90;;;;;;5005034;28;20520;-76
2023/05/13 06:13:58;;;;;;;5.82;3.00;;;10.60;99.90;;;;;;5014155;28;20089;-74
2023/05/13 06:16:24;;;;;;;3.72;2.63;;;10.60;99.90;;;;;;5012865;28;20176;-76
2023/05/13 06:18:49;;;;;;;6.63;2.80;;;10.60;99.90;;;;;;5012392;28;20029;-76
2023/05/13 06:21:15;;;;;;;4.63;2.72;;;10.60;99.90;;;;;;5010081;28;20400;-75
2023/05/13 06:23:41;;;;;;;5.03;3.08;;;10.60;99.90;;;;;;5014135;28;20132;-75
2023/05/13 06:26:06;;;;;;;5.30;3.20;;;10.60;99.90;;;;;;5014269;28;20100;-75
2023/05/13 06:28:32;;;;;;;5.40;3.25;;;10.50;99.90;;;;;;5008092;28;20034;-75
2023/05/13 06:30:58;;;;;;;4.35;2.97;;;10.60;99.90;;;;;;5009072;28;20032;-75
2023/05/13 06:33:23;;;;;;;6.95;3.75;;;10.60;99.90;;;;;;5009723;28;20041;-76
2023/05/13 06:35:49;;;;;;;3.72;3.00;;;10.60;99.90;;;;;;5013792;28;20037;-75
2023/05/13 06:38:18;;;;;;;4.15;2.92;;;10.60;99.90;;;;;;5008183;28;20025;-75
2023/05/13 06:40:47;;;;;;;5.20;2.95;;;10.60;99.90;;;;;;5020278;28;20029;-76
2023/05/13 06:43:16;;;;;;;5.30;2.67;;;10.70;99.90;;;;;;5011593;28;20502;-76
2023/05/13 06:45:42;;;;;;;3.88;2.67;;;10.70;99.90;;;;;;5008629;28;20022;-75
2023/05/13 06:48:08;;;;;;;5.57;3.17;;;10.70;99.90;;;;;;5010380;28;20377;-74
2023/05/13 06:50:39;;;;;;;5.18;3.30;;;10.70;99.90;;;;;;5006980;28;20030;-75
2023/05/13 06:53:11;;;;;;;6.70;3.50;;;10.70;99.90;;;;;;5011766;28;20032;-76
2023/05/13 06:55:43;;;;;;;4.70;3.13;;;10.70;99.90;;;;;;5013825;28;20029;-75
2023/05/13 06:58:09;;;;;;;6.85;3.75;;;10.60;99.90;;;;;;5018642;28;20487;-75
2023/05/13 07:00:39;;;;;;;7.80;4.13;;;10.70;99.90;;;;;;5013077;28;20041;-75
2023/05/13 07:03:06;;;;;;;5.07;3.53;;;10.70;99.90;;;;;;5015779;28;20455;-75
2023/05/13 07:05:37;;;;;;;5.65;3.80;;;10.70;99.90;;;;;;5014773;28;20079;-75
2023/05/13 07:08:07;;;;;;;5.28;3.42;;;10.70;99.90;;;;;;5016215;28;20111;-75
2023/05/13 07:10:33;;;;;;;6.38;3.60;;;10.70;99.90;;;;;;5012430;28;20026;-75
2023/05/13 07:13:00;;;;;;;6.35;3.53;;;10.70;99.90;;;;;;5013545;28;20037;-75
2023/05/13 07:15:31;;;;;;;7.57;3.90;;;10.70;99.90;;;;;;5010090;28;20030;-74
2023/05/13 07:18:03;;;;;;;5.53;4.10;;;10.70;99.90;;;;;;5011978;28;20476;-74
2023/05/13 07:20:35;;;;;;;6.68;3.30;;;10.70;99.90;;;;;;5009496;28;20022;-75
2023/05/13 07:23:01;;;;;;;5.30;3.28;;;10.70;99.90;;;;;;5007159;28;20014;-75
2023/05/13 07:25:27;;;;;;;5.53;3.65;;;10.70;99.90;;;;;;5014798;28;20053;-75
2023/05/13 07:27:52;;;;;;;5.45;4.00;;;10.70;99.90;;;;;;5010600;28;20044;-75
2023/05/13 07:30:21;;;;;;;6.82;3.67;;;10.70;99.90;;;;;;5012127;28;20022;-74
2023/05/13 07:32:50;;;;;;;7.20;3.65;;;10.70;99.90;;;;;;5004871;28;20042;-76
2023/05/13 07:35:16;;;;;;;4.82;3.33;;;10.70;99.90;;;;;;5025295;28;20034;-75
2023/05/13 07:37:42;;;;;;;5.72;3.10;;;10.70;99.90;;;;;;5013558;28;20369;-76
2023/05/13 07:40:08;;;;;;;7.00;3.30;;;10.70;99.90;;;;;;5014647;28;20037;-75
2023/05/13 07:42:36;;;;;;;7.50;3.80;;;10.70;99.90;;;;;;5022673;28;20076;-76
2023/05/13 07:45:02;;;;;;;6.38;3.42;;;10.70;99.90;;;;;;5015804;28;20087;-76
2023/05/13 07:47:32;;;;;;;5.25;3.47;;;10.70;99.90;;;;;;5005660;28;20056;-76
2023/05/13 07:50:00;;;;;;;5.00;3.60;;;10.70;99.90;;;;;;5006583;28;20120;-75
2023/05/13 07:52:26;;;;;;;6.03;3.35;;;10.70;99.90;;;;;;5013086;28;20044;-76
2023/05/13 07:54:52;;;;;;;5.95;3.40;;;10.70;99.90;;;;;;5013206;28;20113;-75
2023/05/13 07:57:18;;;;;;;5.50;3.50;;;10.80;99.90;;;;;;5011773;28;20025;-75
2023/05/13 07:59:44;;;;;;;6.22;3.53;;;10.80;99.90;;;;;;5018549;28;20033;-75
2023/05/13 08:02:12;;;;;;;6.32;3.80;;;10.80;99.90;;;;;;5007697;28;20092;-76
2023/05/13 08:04:44;;;;;;;5.32;3.63;;;10.70;99.90;;;;;;5013591;28;20435;-75
2023/05/13 08:07:10;;;;;;;6.82;4.25;;;10.80;99.90;;;;;;5009216;28;20018;-74
2023/05/13 08:09:39;;;;;;;5.30;3.92;;;10.80;99.90;;;;;;5013054;28;20026;-75
2023/05/13 08:12:05;;;;;;;6.20;4.10;;;10.90;99.90;;;;;;5013167;28;20017;-74
2023/05/13 08:14:30;;;;;;;6.82;3.78;;;10.90;99.90;;;;;;5011925;28;20496;-75
2023/05/13 08:16:59;;;;;;;7.30;3.83;;;10.90;99.90;;;;;;5015947;28;20103;-74
2023/05/13 08:19:25;;;;;;;6.60;4.30;;;10.90;99.90;;;;;;5012467;28;20056;-75
2023/05/13 08:21:57;;;;;;;5.10;3.92;;;10.90;99.90;;;;;;5011587;28;20025;-74
2023/05/13 08:24:22;;;;;;;8.63;4.25;;;10.90;99.90;;;;;;5008800;28;20030;-75
2023/05/13 08:26:48;;;;;;;6.30;4.20;;;10.90;99.90;;;;;;5011916;28;20125;-74
2023/05/13 08:29:14;;;;;;;7.43;4.40;;;11.00;99.90;;;;;;5013112;28;20038;-74
2023/05/13 08:31:41;;;;;;;7.00;4.63;;;11.00;99.90;;;;;;5020313;28;20033;-74
2023/05/13 08:34:09;;;;;;;7.78;4.47;;;11.00;99.90;;;;;;4995266;23;20569;-76
2023/05/13 08:36:35;;;;;;;9.27;4.40;;;11.10;99.90;;;;;;4963497;28;20500;-76
2023/05/13 08:39:01;;;;;;;7.18;4.18;;;11.00;99.90;;;;;;4968988;28;20124;-76
2023/05/13 08:41:30;;;;;;;8.45;3.92;;;11.10;99.90;;;;;;4977515;28;20029;-76
2023/05/13 08:44:05;;;;;;;7.47;4.32;;;11.10;99.90;;;;;;4973143;28;20520;-76
2023/05/13 08:46:36;;;;;;;9.20;4.95;;;11.10;99.90;;;;;;4968740;28;20026;-76
2023/05/13 08:49:02;;;;;;;8.32;4.15;;;11.10;99.90;;;;;;4967626;28;20085;-75
2023/05/13 08:51:31;;;;;;;7.65;4.47;;;11.10;99.90;;;;;;4965508;28;20148;-75
2023/05/13 08:53:57;;;;;;;11.07;5.07;;;11.10;99.90;;;;;;4972379;28;20082;-75
2023/05/13 08:56:27;;;;;;;8.32;4.88;;;11.10;99.90;;;;;;4971622;28;20030;-74
2023/05/13 08:58:53;;;;;;;7.93;4.65;;;11.20;99.90;;;;;;4969283;28;20030;-75
2023/05/13 09:01:20;;;;;;;9.73;5.53;;;11.10;99.90;;;;;;4968866;28;20019;-74
2023/05/13 09:04:01;;;;;;;8.38;5.38;;;11.20;99.90;;;;;;4973675;28;20037;-75
2023/05/13 09:06:27;;;;;;;12.45;5.15;;;11.20;99.90;;;;;;4972773;28;20046;-76
2023/05/13 09:08:54;;;;;;;9.30;5.40;;;11.20;99.90;;;;;;4970602;28;20065;-74
2023/05/13 09:11:20;;;;;;;8.93;5.47;;;11.30;99.90;;;;;;4974467;28;20107;-75
2023/05/13 09:13:57;;;;;;;8.18;4.88;;;11.30;99.90;;;;;;4972334;28;20031;-75
2023/05/13 09:16:23;;;;;;;11.38;5.90;;;11.30;99.90;;;;;;4976458;28;20389;-75
2023/05/13 09:18:48;;;;;;;8.70;4.97;;;11.30;99.90;;;;;;4976995;28;20019;-75
2023/05/13 09:21:30;;;;;;;9.63;5.85;;;11.40;99.90;;;;;;4973941;28;20093;-76
2023/05/13 09:24:17;;;;;;;6.88;4.70;;;11.30;99.90;;;;;;4970220;28;20491;-76
2023/05/13 09:26:46;;;;;;;9.23;5.32;;;11.40;99.90;;;;;;4971726;28;20034;-76
2023/05/13 09:29:21;;;;;;;9.38;4.82;;;11.40;99.90;;;;;;4973935;28;20485;-76
2023/05/13 09:31:59;;;;;;;8.45;5.22;;;11.40;99.90;;;;;;4972755;28;20136;-76
2023/05/13 09:34:28;;;;;;;10.15;5.70;;;11.40;99.90;;;;;;4975228;28;20558;-76
2023/05/13 09:37:00;;;;;;;7.53;4.80;;;11.40;99.90;;;;;;4971857;28;20509;-76
2023/05/13 09:39:26;;;;;;;6.68;4.88;;;11.50;99.90;;;;;;4976345;28;20061;-76
2023/05/13 09:41:59;;;;;;;9.57;5.47;;;11.50;99.90;;;;;;4972453;28;20178;-76
2023/05/13 09:44:25;;;;;;;9.27;4.90;;;11.60;99.90;;;;;;4973365;28;20038;-76
2023/05/13 09:46:52;;;;;;;9.85;5.15;;;11.60;99.90;;;;;;4973054;28;20696;-76
2023/05/13 09:49:22;;;;;;;9.43;5.72;;;11.70;99.90;;;;;;4976628;28;20035;-76
2023/05/13 09:51:48;;;;;;;11.63;6.40;;;11.60;99.90;;;;;;4976619;28;20031;-76
2023/05/13 09:54:13;;;;;;;9.43;6.10;;;11.60;99.90;;;;;;4974610;28;20027;-76
2023/05/13 09:56:39;;;;;;;9.70;6.03;;;11.70;99.90;;;;;;4988002;28;20031;-76
2023/05/13 09:59:05;;;;;;;9.52;5.70;;;11.70;99.90;;;;;;4971078;28;20026;-75
2023/05/13 10:01:31;;;;;;;9.80;5.72;;;11.70;99.90;;;;;;4986688;28;20159;-76
2023/05/13 10:03:58;;;;;;;9.45;6.00;;;11.80;99.90;;;;;;4974087;28;20033;-76
2023/05/13 10:06:29;;;;;;;7.55;4.93;;;11.70;99.90;;;;;;4984585;28;20084;-74
2023/05/13 10:08:57;;;;;;;10.25;5.45;;;11.80;99.90;;;;;;4974488;28;20027;-74
2023/05/13 10:11:28;;;;;;;7.13;4.75;;;11.80;99.90;;;;;;4977230;28;20038;-74
2023/05/13 10:14:04;;;;;;;11.20;5.10;;;11.80;99.90;;;;;;4976000;28;20034;-74
2023/05/13 10:16:31;;;;;;;9.77;5.00;;;11.80;99.90;;;;;;4973619;28;20405;-73
2023/05/13 10:18:58;;;;;;;8.57;5.25;;;11.80;99.90;;;;;;4975192;28;20061;-73
2023/05/13 10:21:27;;;;;;;12.95;5.80;;;11.80;99.90;;;;;;4972809;28;20489;-73
2023/05/13 10:24:00;;;;;;;9.98;5.20;;;11.80;99.90;;;;;;4978171;28;20077;-73
2023/05/13 10:26:26;;;;;;;7.57;5.30;;;11.80;99.90;;;;;;4974849;28;20026;-73
2023/05/13 10:28:56;;;;;;;8.23;4.60;;;11.80;99.90;;;;;;4973536;28;20110;-73
2023/05/13 10:31:23;;;;;;;6.75;4.90;;;11.80;99.90;;;;;;4969044;28;20030;-73
2023/05/13 10:33:52;;;;;;;6.95;4.68;;;11.80;99.90;;;;;;4984802;28;20089;-73
2023/05/13 10:37:02;;;;;;;6.80;4.68;;;11.80;99.90;;;;;;4976683;28;20026;-76
2023/05/13 10:39:56;;;;;;;7.10;4.70;;;11.90;99.90;;;;;;4963776;28;20094;-74
2023/05/13 10:42:30;;;;;;;5.82;4.00;;;11.90;99.90;;;;;;4974743;28;20026;-75
2023/05/13 10:44:57;;;;;;;7.63;4.50;;;11.90;99.90;;;;;;4970813;28;20084;-75
2023/05/13 10:47:23;;;;;;;9.20;4.55;;;11.90;99.90;;;;;;4988710;28;20586;-73
2023/05/13 10:49:52;;;;;;;7.00;4.40;;;11.90;99.90;;;;;;4971950;28;20117;-75
2023/05/13 10:52:41;;;;;;;6.80;4.10;;;11.90;99.90;;;;;;4972180;28;20038;-75
2023/05/13 10:55:17;;;;;;;7.05;4.40;;;12.00;99.90;;;;;;4968973;28;20035;-75
2023/05/13 10:58:06;;;;;;;8.55;4.03;;;12.00;99.90;;;;;;4972979;28;20027;-75
2023/05/13 11:00:32;;;;;;;6.40;3.83;;;12.00;99.90;;;;;;4974897;28;20425;-75
2023/05/13 11:03:28;;;;;;;5.28;3.50;;;12.10;99.90;;;;;;4973846;28;20516;-76
2023/05/13 11:06:12;;;;;;;5.82;4.03;;;12.10;99.90;;;;;;4973993;28;20054;-76
2023/05/13 11:08:38;;;;;;;5.10;3.55;;;12.10;99.90;;;;;;4971123;28;20512;-74
2023/05/13 11:11:16;;;;;;;6.75;3.38;;;12.10;99.90;;;;;;4972134;28;20039;-74
2023/05/13 11:13:41;;;;;;;7.50;3.78;;;12.10;99.90;;;;;;4992037;28;20042;-75
2023/05/13 11:16:12;;;;;;;8.50;4.25;;;12.10;99.90;;;;;;4969399;28;20035;-75
2023/05/13 11:18:41;;;;;;;5.22;3.47;;;12.10;99.90;;;;;;4969547;28;20258;-75
2023/05/13 11:21:10;;;;;;;4.57;3.53;;;12.10;99.90;;;;;;4971972;28;20023;-72
2023/05/13 11:23:55;;;;;;;6.10;4.10;;;12.10;99.90;;;;;;4972767;28;20019;-75
2023/05/13 11:26:21;;;;;;;5.82;3.50;;;12.10;99.90;;;;;;4968342;28;20061;-72
2023/05/13 11:29:05;;;;;;;5.70;3.85;;;12.10;99.90;;;;;;4971082;28;20026;-75
2023/05/13 11:32:01;;;;;;;6.65;4.20;;;12.10;99.90;;;;;;4975159;28;20031;-75
2023/05/13 11:34:28;;;;;;;6.55;4.22;;;12.10;99.90;;;;;;4973675;28;20113;-74
2023/05/13 11:37:07;;;;;;;10.00;3.97;;;12.20;99.90;;;;;;4986640;28;20599;-75
2023/05/13 11:39:40;;;;;;;4.97;3.55;;;12.30;99.90;;;;;;4976614;28;20416;-75
2023/05/13 11:42:10;;;;;;;5.25;3.33;;;12.30;99.90;;;;;;4984589;28;20027;-74
2023/05/13 11:44:44;;;;;;;6.28;4.22;;;12.40;99.90;;;;;;4974961;28;20023;-75
2023/05/13 11:47:10;;;;;;;9.05;3.95;;;12.50;99.90;;;;;;4976890;28;20089;-74
2023/05/13 11:49:40;;;;;;;7.80;5.03;;;12.50;99.90;;;;;;4976133;28;20022;-72
2023/05/13 11:52:08;;;;;;;5.88;3.80;;;12.60;99.90;;;;;;4976732;28;20027;-74
2023/05/13 11:54:45;;;;;;;7.63;3.03;;;12.60;99.90;;;;;;4974807;28;20085;-74
2023/05/13 11:57:15;;;;;;;4.65;3.47;;;12.50;99.90;;;;;;4973880;28;20507;-75
2023/05/13 11:59:40;;;;;;;4.55;3.08;;;12.60;99.90;;;;;;4985995;28;20054;-75
2023/05/13 12:02:06;;;;;;;6.97;3.22;;;12.60;99.90;;;;;;4986553;28;20450;-75
2023/05/13 12:04:32;;;;;;;3.50;3.20;;;12.60;99.90;;;;;;4977398;28;20564;-74
2023/05/13 12:07:00;;;;;;;4.22;2.85;;;12.50;99.90;;;;;;4971245;28;20037;-74
2023/05/13 12:09:26;;;;;;;4.35;3.30;;;12.60;99.90;;;;;;4972384;28;20071;-75
2023/05/13 12:11:52;;;;;;;3.72;3.00;;;12.60;99.90;;;;;;4964836;28;20121;-75
2023/05/13 12:14:20;;;;;;;4.18;3.10;;;12.60;99.90;;;;;;4965829;28;20035;-75
2023/05/13 12:16:47;;;;;;;9.32;4.18;;;12.60;99.90;;;;;;4965944;28;20051;-75
2023/05/13 12:19:13;;;;;;;6.57;3.80;;;12.70;99.90;;;;;;4973257;28;20384;-75
2023/05/13 12:21:38;;;;;;;4.10;3.10;;;12.70;99.90;;;;;;4975483;28;20134;-75
2023/05/13 12:24:20;;;;;;;4.47;3.03;;;12.70;99.90;;;;;;4970976;28;20026;-74
2023/05/13 12:26:46;;;;;;;3.67;2.80;;;12.70;99.90;;;;;;4975519;28;20122;-75
2023/05/13 12:29:13;;;;;;;4.47;3.20;;;12.70;99.90;;;;;;4975477;28;20031;-75
2023/05/13 12:31:41;;;;;;;3.30;2.70;;;12.70;99.90;;;;;;4976326;28;20065;-75
2023/05/13 12:34:06;;;;;;;7.72;4.47;;;12.60;99.90;;;;;;4971835;28;20023;-75
2023/05/13 12:36:36;;;;;;;6.90;4.30;;;12.70;99.90;;;;;;4972035;28;20030;-74
2023/05/13 12:39:09;;;;;;;8.38;4.80;;;12.70;99.90;;;;;;4975198;28;20117;-75
2023/05/13 12:41:49;;;;;;;6.10;3.28;;;12.70;99.90;;;;;;4966308;28;20037;-75
2023/05/13 12:44:15;;;;;;;6.35;3.63;;;12.70;99.90;;;;;;4965986;28;20038;-75
2023/05/13 12:46:51;;;;;;;4.47;3.38;;;12.60;99.90;;;;;;4970005;28;20035;-75
2023/05/13 12:49:17;;;;;;;4.68;3.30;;;12.60;99.90;;;;;;4968365;28;20027;-75
2023/05/13 12:51:42;;;;;;;6.45;3.30;;;12.70;99.90;;;;;;4969347;28;20540;-76
2023/05/13 12:54:10;;;;;;;5.55;3.72;;;12.70;99.90;;;;;;4978165;28;20091;-75